Time;durP1;ratioP1;P1;durP2;ratioP2;P2;SDS_P1;SDS_P2;PMS_P1;PMS_P2;Temp;Humidity;BMP_temperature;BMP_pressure;BME280_temperature;BME280_humidity;BME280_pressure;Samples;Min_cycle;Max_cycle;Signal;HPM_P1;HPM_P2
2022/04/17 00:01:26;;;;;;;;;;;;;;;;;;5094521;28;19964;-74
2022/04/17 00:03:51;;;;;;;;;;;;;;;;;;5093276;28;20011;-74
2022/04/17 00:06:17;;;;;;;;;;;;;;;;;;5093852;28;20007;-74
2022/04/17 00:08:42;;;;;;;;;;;;;;;;;;5093965;28;20014;-74
2022/04/17 00:11:09;;;;;;;;;;;;;;;;;;5094314;28;19916;-74
2022/04/17 00:13:34;;;;;;;;;;;;;;;;;;5094482;28;19944;-74
2022/04/17 00:15:59;;;;;;;;;;;;;;;;;;5094191;28;19963;-74
2022/04/17 00:18:24;;;;;;;;;;;;;;;;;;5094166;28;19923;-74
2022/04/17 00:20:50;;;;;;;;;;;;;;;;;;5091097;28;19958;-74
2022/04/17 00:23:16;;;;;;;;;;;;;;;;;;5092731;28;20430;-74
2022/04/17 00:25:41;;;;;;;;;;;;;;;;;;5093231;28;20338;-74
2022/04/17 00:28:06;;;;;;;;;;;;;;;;;;5091773;28;20018;-74
2022/04/17 00:30:32;;;;;;;;;;;;;;;;;;5091867;28;19978;-74
2022/04/17 00:32:57;;;;;;;;;;;;;;;;;;5092220;28;19923;-74
2022/04/17 00:35:22;;;;;;;;;;;;;;;;;;5091671;28;19963;-74
2022/04/17 00:37:47;;;;;;;;;;;;;;;;;;5090812;28;19926;-74
2022/04/17 00:40:13;;;;;;;;;;;;;;;;;;5092097;28;19916;-74
2022/04/17 00:42:41;;;;;;;;;;;;;;;;;;5093783;28;19958;-74
2022/04/17 00:45:06;;;;;;;;;;;;;;;;;;5092789;28;19927;-74
2022/04/17 00:47:32;;;;;;;;;;;;;;;;;;5093977;28;19916;-74
2022/04/17 00:49:57;;;;;;;;;;;;;;;;;;5093753;28;19916;-73
2022/04/17 00:52:23;;;;;;;;;;;;;;;;;;5092446;28;19916;-74
2022/04/17 00:54:49;;;;;;;;;;;;;;;;;;5093804;28;19971;-74
2022/04/17 00:57:16;;;;;;;;;;;;;;;;;;5093463;28;19936;-74
2022/04/17 00:59:42;;;;;;;;;;;;;;;;;;5093491;28;19922;-74
2022/04/17 01:02:08;;;;;;;;;;;;;;;;;;5092474;28;19923;-74
2022/04/17 01:04:33;;;;;;;;;;;;;;;;;;5092576;28;20296;-74
2022/04/17 01:06:59;;;;;;;;;;;;;;;;;;5093688;28;19916;-74
2022/04/17 01:09:24;;;;;;;;;;;;;;;;;;5092714;28;19916;-74
2022/04/17 01:11:50;;;;;;;;;;;;;;;;;;5093350;28;20328;-74
2022/04/17 01:14:15;;;;;;;;;;;;;;;;;;5093723;28;19916;-74
2022/04/17 01:16:40;;;;;;;;;;;;;;;;;;5093518;28;19920;-74
2022/04/17 01:19:13;;;;;;;;;;;;;;;;;;5093643;28;19920;-74
2022/04/17 01:21:39;;;;;;;;;;;;;;;;;;5093516;28;20019;-74
2022/04/17 01:26:57;;;;;;;;;;;;;;;;;;5093336;28;19917;-74
2022/04/17 01:29:22;;;;;;;;;;;;;;;;;;5093429;28;19920;-74
2022/04/17 01:31:48;;;;;;;;;;;;;;;;;;5092268;28;20019;-74
2022/04/17 01:34:14;;;;;;;;;;;;;;;;;;5093661;28;19917;-74
2022/04/17 01:36:40;;;;;;;;;;;;;;;;;;5093370;28;20019;-74
2022/04/17 01:39:06;;;;;;;;;;;;;;;;;;5092920;28;19951;-73
2022/04/17 01:41:31;;;;;;;;;;;;;;;;;;5088584;28;20390;-73
2022/04/17 01:43:56;;;;;;;;;;;;;;;;;;5073216;28;20369;-74
2022/04/17 01:46:22;;;;;;;;;;;;;;;;;;5071729;28;19921;-74
2022/04/17 01:48:47;;;;;;;;;;;;;;;;;;5076729;28;19916;-73
2022/04/17 01:51:12;;;;;;;;;;;;;;;;;;5091799;28;20377;-74
2022/04/17 01:53:38;;;;;;;;;;;;;;;;;;5094931;28;19939;-74
2022/04/17 01:56:03;;;;;;;;;;;;;;;;;;5096802;28;19927;-74
2022/04/17 01:58:28;;;;;;;;;;;;;;;;;;5097043;28;20375;-74
2022/04/17 02:00:54;;;;;;;;;;;;;;;;;;5096086;28;20421;-74
2022/04/17 02:03:19;;;;;;;;;;;;;;;;;;5097053;28;20014;-74
2022/04/17 02:05:44;;;;;;;;;;;;;;;;;;5096570;28;19924;-74
2022/04/17 02:08:09;;;;;;;;;;;;;;;;;;5096713;28;19959;-74
2022/04/17 02:10:35;;;;;;;;;;;;;;;;;;5096582;28;20015;-74
2022/04/17 02:13:00;;;;;;;;;;;;;;;;;;5096614;28;19908;-74
2022/04/17 02:15:26;;;;;;;;;;;;;;;;;;5096646;28;19919;-74
2022/04/17 02:17:51;;;;;;;;;;;;;;;;;;5096647;28;20019;-74
2022/04/17 02:20:16;;;;;;;;;;;;;;;;;;5095018;28;19926;-74
2022/04/17 02:22:42;;;;;;;;;;;;;;;;;;5096543;28;20361;-74
2022/04/17 02:25:07;;;;;;;;;;;;;;;;;;5096259;28;19916;-74
2022/04/17 02:27:33;;;;;;;;;;;;;;;;;;5096413;28;19961;-74
2022/04/17 02:29:58;;;;;;;;;;;;;;;;;;5095511;28;19916;-74
2022/04/17 02:32:23;;;;;;;;;;;;;;;;;;5096116;28;19916;-74
2022/04/17 02:34:48;;;;;;;;;;;;;;;;;;5096430;28;19916;-74
2022/04/17 02:37:14;;;;;;;;;;;;;;;;;;5094783;28;19923;-74
2022/04/17 02:39:39;;;;;;;;;;;;;;;;;;5096046;28;19920;-74
2022/04/17 02:42:04;;;;;;;;;;;;;;;;;;5096098;28;19923;-74
2022/04/17 02:44:30;;;;;;;;;;;;;;;;;;5096213;28;20292;-74
2022/04/17 02:49:39;;;;;;;;;;;;;;;;;;5096012;28;19969;-74
2022/04/17 02:52:04;;;;;;;;;;;;;;;;;;5094756;28;19915;-74
2022/04/17 02:54:30;;;;;;;;;;;;;;;;;;5095911;28;19916;-74
2022/04/17 02:56:55;;;;;;;;;;;;;;;;;;5095205;28;19924;-74
2022/04/17 02:59:20;;;;;;;;;;;;;;;;;;5094412;28;19916;-74
2022/04/17 03:07:14;;;;;;;;;;;;;;;;;;5095601;28;19923;-74
2022/04/17 03:09:40;;;;;;;;;;;;;;;;;;5077802;28;19916;-74
2022/04/17 03:12:05;;;;;;;;;;;;;;;;;;5094418;28;20015;-74
2022/04/17 03:14:30;;;;;;;;;;;;;;;;;;5095684;28;19916;-74
2022/04/17 03:16:56;;;;;;;;;;;;;;;;;;5095036;28;19924;-74
2022/04/17 03:19:21;;;;;;;;;;;;;;;;;;5094297;28;19970;-74
2022/04/17 03:21:46;;;;;;;;;;;;;;;;;;5095656;28;19916;-74
2022/04/17 03:24:12;;;;;;;;;;;;;;;;;;5095346;28;19969;-74
2022/04/17 03:26:41;;;;;;;;;;;;;;;;;;5095249;28;19962;-74
2022/04/17 03:29:06;;;;;;;;;;;;;;;;;;5093872;28;20308;-74
2022/04/17 03:31:31;;;;;;;;;;;;;;;;;;5093910;28;20010;-74
2022/04/17 03:33:57;;;;;;;;;;;;;;;;;;5093726;28;20243;-74
2022/04/17 03:36:22;;;;;;;;;;;;;;;;;;5093911;28;19920;-74
2022/04/17 03:38:47;;;;;;;;;;;;;;;;;;5095198;28;19939;-74
2022/04/17 03:41:13;;;;;;;;;;;;;;;;;;5094929;28;19974;-74
2022/04/17 03:43:39;;;;;;;;;;;;;;;;;;5095013;28;19916;-74
2022/04/17 03:46:04;;;;;;;;;;;;;;;;;;5093257;28;19956;-74
2022/04/17 03:48:30;;;;;;;;;;;;;;;;;;5094769;28;19963;-74
2022/04/17 03:50:56;;;;;;;;;;;;;;;;;;5093532;28;19965;-74
2022/04/17 03:53:21;;;;;;;;;;;;;;;;;;5094611;28;20301;-74
2022/04/17 03:55:47;;;;;;;;;;;;;;;;;;5094482;28;19920;-74
2022/04/17 03:58:12;;;;;;;;;;;;;;;;;;5094683;28;19920;-74
2022/04/17 04:00:37;;;;;;;;;;;;;;;;;;5094592;28;19923;-74
2022/04/17 04:03:03;;;;;;;;;;;;;;;;;;5094295;28;19920;-74
2022/04/17 04:05:28;;;;;;;;;;;;;;;;;;5093632;28;19916;-74
2022/04/17 04:07:53;;;;;;;;;;;;;;;;;;5094555;28;19916;-74
2022/04/17 04:10:19;;;;;;;;;;;;;;;;;;5094331;28;19969;-74
2022/04/17 04:12:44;;;;;;;;;;;;;;;;;;5094386;28;20337;-74
2022/04/17 04:15:10;;;;;;;;;;;;;;;;;;5094163;28;19920;-74
2022/04/17 04:17:35;;;;;;;;;;;;;;;;;;5093658;28;19927;-74
2022/04/17 04:20:01;;;;;;;;;;;;;;;;;;5092994;28;19916;-74
2022/04/17 04:22:26;;;;;;;;;;;;;;;;;;5094233;28;19920;-74
2022/04/17 04:24:51;;;;;;;;;;;;;;;;;;5094041;28;19916;-73
2022/04/17 04:30:01;;;;;;;;;;;;;;;;;;5092704;28;19916;-74
2022/04/17 04:32:26;;;;;;;;;;;;;;;;;;5093767;28;19923;-73
2022/04/17 04:34:56;;;;;;;;;;;;;;;;;;5093137;28;20129;-73
2022/04/17 04:37:21;;;;;;;;;;;;;;;;;;5093759;28;19920;-73
2022/04/17 04:39:46;;;;;;;;;;;;;;;;;;5094132;28;19923;-73
2022/04/17 04:42:12;;;;;;;;;;;;;;;;;;5094017;28;19916;-74
2022/04/17 04:44:37;;;;;;;;;;;;;;;;;;5093958;28;19916;-74
2022/04/17 04:47:03;;;;;;;;;;;;;;;;;;5093860;28;19941;-73
2022/04/17 04:49:31;;;;;;;;;;;;;;;;;;5093593;28;19916;-74
2022/04/17 04:52:00;;;;;;;;;;;;;;;;;;5093465;28;19916;-73
2022/04/17 04:54:26;;;;;;;;;;;;;;;;;;5093755;28;19923;-73
2022/04/17 04:56:51;;;;;;;;;;;;;;;;;;5093494;28;19920;-73
2022/04/17 04:59:17;;;;;;;;;;;;;;;;;;5093790;28;19916;-73
2022/04/17 05:01:42;;;;;;;;;;;;;;;;;;5093832;28;19958;-73
2022/04/17 05:04:07;;;;;;;;;;;;;;;;;;5093623;28;19923;-73
2022/04/17 05:06:33;;;;;;;;;;;;;;;;;;5093462;28;19916;-73
2022/04/17 05:08:58;;;;;;;;;;;;;;;;;;5093828;28;19986;-73
2022/04/17 05:11:23;;;;;;;;;;;;;;;;;;5093880;28;19916;-73
2022/04/17 05:13:49;;;;;;;;;;;;;;;;;;5093721;28;19923;-73
2022/04/17 05:16:14;;;;;;;;;;;;;;;;;;5093626;28;19938;-73
2022/04/17 05:18:40;;;;;;;;;;;;;;;;;;5093418;28;19919;-75
2022/04/17 05:21:06;;;;;;;;;;;;;;;;;;5093629;28;20374;-75
2022/04/17 05:23:32;;;;;;;;;;;;;;;;;;5093585;28;19916;-75
2022/04/17 05:26:01;;;;;;;;;;;;;;;;;;5093609;28;19917;-72
2022/04/17 05:28:28;;;;;;;;;;;;;;;;;;5094888;28;20060;-76
2022/04/17 05:30:53;;;;;;;;;;;;;;;;;;5097460;28;19920;-76
2022/04/17 05:33:19;;;;;;;;;;;;;;;;;;5097313;28;19916;-75
2022/04/17 05:35:45;;;;;;;;;;;;;;;;;;5096767;28;19938;-75
2022/04/17 05:38:10;;;;;;;;;;;;;;;;;;5098287;28;19975;-77
2022/04/17 05:40:39;;;;;;;;;;;;;;;;;;5098557;28;19919;-76
2022/04/17 05:43:04;;;;;;;;;;;;;;;;;;5099721;28;20468;-76
2022/04/17 05:45:30;;;;;;;;;;;;;;;;;;5095808;28;20023;-75
2022/04/17 05:47:56;;;;;;;;;;;;;;;;;;5091509;28;19917;-76
2022/04/17 05:50:21;;;;;;;;;;;;;;;;;;5075447;28;19917;-76
2022/04/17 05:52:47;;;;;;;;;;;;;;;;;;5076509;28;19916;-75
2022/04/17 05:55:12;;;;;;;;;;;;;;;;;;5075561;28;19916;-75
2022/04/17 05:57:37;;;;;;;;;;;;;;;;;;5076484;28;20358;-75
2022/04/17 06:00:04;;;;;;;;;;;;;;;;;;5076824;28;19953;-74
2022/04/17 06:02:38;;;;;;;;;;;;;;;;;;5076210;28;19928;-76
2022/04/17 06:05:05;;;;;;;;;;;;;;;;;;5076415;28;19916;-77
2022/04/17 06:07:30;;;;;;;;;;;;;;;;;;5075324;28;19917;-76
2022/04/17 06:09:56;;;;;;;;;;;;;;;;;;5076302;28;20061;-76
2022/04/17 06:12:21;;;;;;;;;;;;;;;;;;5076407;28;20015;-75
2022/04/17 06:14:46;;;;;;;;;;;;;;;;;;5076506;28;19924;-73
2022/04/17 06:17:12;;;;;;;;;;;;;;;;;;5082676;28;19920;-75
2022/04/17 06:19:37;;;;;;;;;;;;;;;;;;5095513;28;19923;-76
2022/04/17 06:22:03;;;;;;;;;;;;;;;;;;5095367;28;19916;-76
2022/04/17 06:24:29;;;;;;;;;;;;;;;;;;5098106;28;19932;-77
2022/04/17 06:26:54;;;;;;;;;;;;;;;;;;5095075;28;20457;-77
2022/04/17 06:29:19;;;;;;;;;;;;;;;;;;5096559;28;19916;-76
2022/04/17 06:31:45;;;;;;;;;;;;;;;;;;5096165;28;19951;-76
2022/04/17 06:34:15;;;;;;;;;;;;;;;;;;5096062;28;19985;-76
2022/04/17 06:36:40;;;;;;;;;;;;;;;;;;5096189;28;19926;-76
2022/04/17 06:39:06;;;;;;;;;;;;;;;;;;5095700;28;20026;-75
2022/04/17 06:41:31;;;;;;;;;;;;;;;;;;5084626;28;19920;-76
2022/04/17 06:43:56;;;;;;;;;;;;;;;;;;5087450;28;19920;-76
2022/04/17 06:46:22;;;;;;;;;;;;;;;;;;5085035;28;20015;-76
2022/04/17 06:48:47;;;;;;;;;;;;;;;;;;5085409;28;19958;-75
2022/04/17 06:51:13;;;;;;;;;;;;;;;;;;5086120;28;19963;-74
2022/04/17 06:53:38;;;;;;;;;;;;;;;;;;5083531;28;19916;-73
2022/04/17 06:56:04;;;;;;;;;;;;;;;;;;5085081;28;20393;-73
2022/04/17 06:58:29;;;;;;;;;;;;;;;;;;5084474;28;19920;-73
2022/04/17 07:00:54;;;;;;;;;;;;;;;;;;5086233;28;19923;-73
2022/04/17 07:03:20;;;;;;;;;;;;;;;;;;5084346;28;19950;-74
2022/04/17 07:05:45;;;;;;;;;;;;;;;;;;5084987;28;19995;-74
2022/04/17 07:08:11;;;;;;;;;;;;;;;;;;5086143;28;20279;-74
2022/04/17 07:10:37;;;;;;;;;;;;;;;;;;5086042;28;20396;-75
2022/04/17 07:13:03;;;;;;;;;;;;;;;;;;5084400;28;19923;-75
2022/04/17 07:15:28;;;;;;;;;;;;;;;;;;5085636;28;19920;-73
2022/04/17 07:17:54;;;;;;;;;;;;;;;;;;5083729;28;19921;-74
2022/04/17 07:20:20;;;;;;;;;;;;;;;;;;5085440;28;19950;-74
2022/04/17 07:22:45;;;;;;;;;;;;;;;;;;5084883;28;20392;-74
2022/04/17 07:25:12;;;;;;;;;;;;;;;;;;5083896;28;19916;-74
2022/04/17 07:27:41;;;;;;;;;;;;;;;;;;5085673;28;19916;-73
2022/04/17 07:30:13;;;;;;;;;;;;;;;;;;5085488;28;19923;-74
2022/04/17 07:32:40;;;;;;;;;;;;;;;;;;5086494;28;20305;-74
2022/04/17 07:35:06;;;;;;;;;;;;;;;;;;5084060;28;19927;-73
2022/04/17 07:37:34;;;;;;;;;;;;;;;;;;5084951;28;20006;-73
2022/04/17 07:39:59;;;;;;;;;;;;;;;;;;5082899;28;19916;-73
2022/04/17 07:42:25;;;;;;;;;;;;;;;;;;5084264;28;19916;-73
2022/04/17 07:44:50;;;;;;;;;;;;;;;;;;5083390;28;20049;-73
2022/04/17 07:47:16;;;;;;;;;;;;;;;;;;5085035;28;19965;-74
2022/04/17 07:49:42;;;;;;;;;;;;;;;;;;5082119;28;19962;-73
2022/04/17 07:52:07;;;;;;;;;;;;;;;;;;5083553;28;19955;-77
2022/04/17 07:54:33;;;;;;;;;;;;;;;;;;5084221;28;20378;-78
2022/04/17 07:56:58;;;;;;;;;;;;;;;;;;5083694;28;19926;-73
2022/04/17 07:59:25;;;;;;;;;;;;;;;;;;5082861;28;20004;-81
2022/04/17 08:01:50;;;;;;;;;;;;;;;;;;5083687;28;19916;-77
2022/04/17 08:04:16;;;;;;;;;;;;;;;;;;5086337;28;20317;-78
2022/04/17 08:06:41;;;;;;;;;;;;;;;;;;5084434;28;19912;-77
2022/04/17 08:09:06;;;;;;;;;;;;;;;;;;5086586;28;20381;-79
2022/04/17 08:11:32;;;;;;;;;;;;;;;;;;5096804;28;19923;-77
2022/04/17 08:13:57;;;;;;;;;;;;;;;;;;5098644;28;19923;-83
2022/04/17 08:16:23;;;;;;;;;;;;;;;;;;5098166;28;19947;-83
2022/04/17 08:18:48;;;;;;;;;;;;;;;;;;5102416;28;19916;-83
2022/04/17 08:21:14;;;;;;;;;;;;;;;;;;5100981;28;19923;-86
2022/04/17 08:23:39;;;;;;;;;;;;;;;;;;5096661;28;19923;-83
2022/04/17 08:26:05;;;;;;;;;;;;;;;;;;5101214;28;20317;-79
2022/04/17 08:28:31;;;;;;;;;;;;;;;;;;5102839;28;19916;-81
2022/04/17 08:30:57;;;;;;;;;;;;;;;;;;5090566;28;19921;-85
2022/04/17 08:33:24;;;;;;;;;;;;;;;;;;5078141;28;20374;-82
2022/04/17 08:35:49;;;;;;;;;;;;;;;;;;5078286;28;19917;-81
2022/04/17 08:38:16;;;;;;;;;;;;;;;;;;5078391;28;20431;-79
2022/04/17 08:40:43;;;;;;;;;;;;;;;;;;5077079;28;20328;-79
2022/04/17 08:43:08;;;;;;;;;;;;;;;;;;5076501;28;19917;-77
2022/04/17 08:45:34;;;;;;;;;;;;;;;;;;5081575;28;19922;-77
2022/04/17 08:47:59;;;;;;;;;;;;;;;;;;5084444;28;20259;-78
2022/04/17 08:50:25;;;;;;;;;;;;;;;;;;5082178;28;19923;-75
2022/04/17 08:52:51;;;;;;;;;;;;;;;;;;5083522;28;19923;-75
2022/04/17 08:55:17;;;;;;;;;;;;;;;;;;5082429;28;19920;-75
2022/04/17 08:57:42;;;;;;;;;;;;;;;;;;5081821;28;20510;-75
2022/04/17 09:00:10;;;;;;;;;;;;;;;;;;5083248;28;20393;-75
2022/04/17 09:02:35;;;;;;;;;;;;;;;;;;5084179;28;20383;-75
2022/04/17 09:05:05;;;;;;;;;;;;;;;;;;5085131;28;19970;-76
2022/04/17 09:07:47;;;;;;;;;;;;;;;;;;5085801;28;19973;-76
2022/04/17 09:10:23;;;;;;;;;;;;;;;;;;5084002;28;19923;-77
2022/04/17 09:12:50;;;;;;;;;;;;;;;;;;5087371;28;20413;-76
2022/04/17 09:15:15;;;;;;;;;;;;;;;;;;5087226;28;19917;-77
2022/04/17 09:17:42;;;;;;;;;;;;;;;;;;5082270;28;20538;-77
2022/04/17 09:20:17;;;;;;;;;;;;;;;;;;5082379;28;19916;-74
2022/04/17 09:22:49;;;;;;;;;;;;;;;;;;5088511;28;19930;-76
2022/04/17 09:25:15;;;;;;;;;;;;;;;;;;5079184;28;19917;-74
2022/04/17 09:28:01;;;;;;;;;;;;;;;;;;5082261;28;19924;-76
2022/04/17 09:30:52;;;;;;;;;;;;;;;;;;5081705;28;19986;-76
2022/04/17 09:33:18;;;;;;;;;;;;;;;;;;5082311;28;19917;-77
2022/04/17 09:35:55;;;;;;;;;;;;;;;;;;5065857;28;19917;-74
2022/04/17 09:38:26;;;;;;;;;;;;;;;;;;5084317;28;19927;-74
2022/04/17 09:40:51;;;;;;;;;;;;;;;;;;5084782;28;20480;-75
2022/04/17 09:43:19;;;;;;;;;;;;;;;;;;5087721;28;19928;-75
2022/04/17 09:45:57;;;;;;;;;;;;;;;;;;5087007;28;19969;-73
2022/04/17 09:48:23;;;;;;;;;;;;;;;;;;5080517;28;19916;-73
2022/04/17 09:50:52;;;;;;;;;;;;;;;;;;5081239;28;19927;-74
2022/04/17 09:53:36;;;;;;;;;;;;;;;;;;5082087;28;20366;-74
2022/04/17 09:56:09;;;;;;;;;;;;;;;;;;5086604;28;19928;-75
2022/04/17 09:58:42;;;;;;;;;;;;;;;;;;5093336;28;19921;-74
2022/04/17 10:01:08;;;;;;;;;;;;;;;;;;5084105;28;19962;-76
2022/04/17 10:03:38;;;;;;;;;;;;;;;;;;5085032;28;20343;-78
2022/04/17 10:06:03;;;;;;;;;;;;;;;;;;5085146;28;19916;-75
2022/04/17 10:08:31;;;;;;;;;;;;;;;;;;5095521;28;20014;-72
2022/04/17 10:10:57;;;;;;;;;;;;;;;;;;5095601;28;20007;-76
2022/04/17 10:13:35;;;;;;;;;;;;;;;;;;5096183;28;19959;-75
2022/04/17 10:16:03;;;;;;;;;;;;;;;;;;5073886;28;19916;-75
2022/04/17 10:18:33;;;;;;;;;;;;;;;;;;5075918;28;19920;-75
2022/04/17 10:21:00;;;;;;;;;;;;;;;;;;5076591;28;20369;-77
2022/04/17 10:23:26;;;;;;;;;;;;;;;;;;5075077;28;19917;-76
2022/04/17 10:25:54;;;;;;;;;;;;;;;;;;5076049;28;19967;-74
2022/04/17 10:28:20;;;;;;;;;;;;;;;;;;5075790;28;19916;-76
2022/04/17 10:30:57;;;;;;;;;;;;;;;;;;5076695;28;19966;-75
2022/04/17 10:33:31;;;;;;;;;;;;;;;;;;5095308;28;19970;-74
2022/04/17 10:36:15;;;;;;;;;;;;;;;;;;5078221;28;19986;-73
2022/04/17 10:38:45;;;;;;;;;;;;;;;;;;5083593;28;20420;-75
2022/04/17 10:41:12;;;;;;;;;;;;;;;;;;5080796;28;20335;-74
2022/04/17 10:43:47;;;;;;;;;;;;;;;;;;5085103;28;19948;-76
2022/04/17 10:46:12;;;;;;;;;;;;;;;;;;5084215;28;19916;-77
2022/04/17 10:48:57;;;;;;;;;;;;;;;;;;5084368;28;19923;-75
2022/04/17 10:51:30;;;;;;;;;;;;;;;;;;5082767;28;19939;-75
2022/04/17 10:54:00;;;;;;;;;;;;;;;;;;5078218;28;19968;-74
2022/04/17 10:56:25;;;;;;;;;;;;;;;;;;5082539;28;20279;-76
2022/04/17 10:58:57;;;;;;;;;;;;;;;;;;5095768;28;19920;-75
2022/04/17 11:01:41;;;;;;;;;;;;;;;;;;5095419;28;19941;-74
2022/04/17 11:04:24;;;;;;;;;;;;;;;;;;5094353;28;19920;-76
2022/04/17 11:07:05;;;;;;;;;;;;;;;;;;5095128;28;19916;-74
2022/04/17 11:09:31;;;;;;;;;;;;;;;;;;5095068;28;19935;-74
2022/04/17 11:12:06;;;;;;;;;;;;;;;;;;5093022;28;19916;-74
2022/04/17 11:14:32;;;;;;;;;;;;;;;;;;5094383;28;19916;-75
2022/04/17 11:16:58;;;;;;;;;;;;;;;;;;5094673;28;19916;-74
2022/04/17 11:19:24;;;;;;;;;;;;;;;;;;5094818;28;20348;-74
2022/04/17 11:21:51;;;;;;;;;;;;;;;;;;5094247;28;19923;-74
2022/04/17 11:24:17;;;;;;;;;;;;;;;;;;5094910;28;20433;-74
2022/04/17 11:26:54;;;;;;;;;;;;;;;;;;5094904;28;19923;-77
2022/04/17 11:29:32;;;;;;;;;;;;;;;;;;5094882;28;19943;-75
2022/04/17 11:31:57;;;;;;;;;;;;;;;;;;5094458;28;20361;-75
2022/04/17 11:34:23;;;;;;;;;;;;;;;;;;5094814;28;19919;-75
2022/04/17 11:36:48;;;;;;;;;;;;;;;;;;5094059;28;20303;-76
2022/04/17 11:39:13;;;;;;;;;;;;;;;;;;5094423;28;20525;-76
2022/04/17 11:41:39;;;;;;;;;;;;;;;;;;5094305;28;19916;-75
2022/04/17 11:44:05;;;;;;;;;;;;;;;;;;5093498;28;19924;-74
2022/04/17 11:46:30;;;;;;;;;;;;;;;;;;5093352;28;19942;-75
2022/04/17 11:48:56;;;;;;;;;;;;;;;;;;5094669;28;19923;-74
2022/04/17 11:51:21;;;;;;;;;;;;;;;;;;5092811;28;19923;-75
2022/04/17 11:53:47;;;;;;;;;;;;;;;;;;5094661;28;19916;-75
2022/04/17 11:56:12;;;;;;;;;;;;;;;;;;5094863;28;19916;-76
2022/04/17 11:58:37;;;;;;;;;;;;;;;;;;5094004;28;20374;-77
2022/04/17 12:01:05;;;;;;;;;;;;;;;;;;5093154;28;19942;-76
2022/04/17 12:03:34;;;;;;;;;;;;;;;;;;5094545;28;20270;-75
2022/04/17 12:06:01;;;;;;;;;;;;;;;;;;5092912;28;19959;-74
2022/04/17 12:08:31;;;;;;;;;;;;;;;;;;5086707;28;19942;-74
2022/04/17 12:10:57;;;;;;;;;;;;;;;;;;5084887;28;19924;-74
2022/04/17 12:13:23;;;;;;;;;;;;;;;;;;5083005;28;19969;-72
2022/04/17 12:15:57;;;;;;;;;;;;;;;;;;5081951;28;19967;-73
2022/04/17 12:18:23;;;;;;;;;;;;;;;;;;5081715;28;20411;-76
2022/04/17 12:20:55;;;;;;;;;;;;;;;;;;5083692;28;19920;-75
2022/04/17 12:23:21;;;;;;;;;;;;;;;;;;5079349;28;19924;-72
2022/04/17 12:25:46;;;;;;;;;;;;;;;;;;5083285;28;19912;-74
2022/04/17 12:28:12;;;;;;;;;;;;;;;;;;5081304;28;19935;-74
2022/04/17 12:30:37;;;;;;;;;;;;;;;;;;5083390;28;19916;-86
2022/04/17 12:33:18;;;;;;;;;;;;;;;;;;5084798;28;19916;-84
2022/04/17 12:35:43;;;;;;;;;;;;;;;;;;5079512;28;19923;-79
2022/04/17 12:38:28;;;;;;;;;;;;;;;;;;5089311;28;19920;-81
2022/04/17 12:40:57;;;;;;;;;;;;;;;;;;5096786;28;19920;-84
2022/04/17 12:43:26;;;;;;;;;;;;;;;;;;5073220;28;19916;-82
2022/04/17 12:45:53;;;;;;;;;;;;;;;;;;5102712;28;19916;-84
2022/04/17 12:48:23;;;;;;;;;;;;;;;;;;5084496;28;19916;-82
2022/04/17 12:50:59;;;;;;;;;;;;;;;;;;5086572;28;19923;-82
2022/04/17 12:53:25;;;;;;;;;;;;;;;;;;5095512;28;20388;-80
2022/04/17 12:55:53;;;;;;;;;;;;;;;;;;5085939;28;19995;-82
2022/04/17 12:58:19;;;;;;;;;;;;;;;;;;5088333;28;19969;-84
2022/04/17 13:00:54;;;;;;;;;;;;;;;;;;5097509;28;19920;-79
2022/04/17 13:03:19;;;;;;;;;;;;;;;;;;5076338;28;19951;-75
2022/04/17 13:05:57;;;;;;;;;;;;;;;;;;5073242;28;19986;-75
2022/04/17 13:08:22;;;;;;;;;;;;;;;;;;5071706;28;19952;-75
2022/04/17 13:10:48;;;;;;;;;;;;;;;;;;5073437;28;20449;-75
2022/04/17 13:13:13;;;;;;;;;;;;;;;;;;5073533;28;19916;-75
2022/04/17 13:15:38;;;;;;;;;;;;;;;;;;5083884;28;20370;-75
2022/04/17 13:18:03;;;;;;;;;;;;;;;;;;5073233;28;20318;-75
2022/04/17 13:20:33;;;;;;;;;;;;;;;;;;5073515;28;20019;-75
2022/04/17 13:22:58;;;;;;;;;;;;;;;;;;5073077;28;20557;-75
2022/04/17 13:25:24;;;;;;;;;;;;;;;;;;5073238;28;19917;-75
2022/04/17 13:27:50;;;;;;;;;;;;;;;;;;5072057;28;20520;-75
2022/04/17 13:30:16;;;;;;;;;;;;;;;;;;5072428;28;19924;-75
2022/04/17 13:32:42;;;;;;;;;;;;;;;;;;5084220;28;19937;-75
2022/04/17 13:35:08;;;;;;;;;;;;;;;;;;5093395;28;19916;-75
2022/04/17 13:40:17;;;;;;;;;;;;;;;;;;5092394;28;19920;-76
2022/04/17 13:42:42;;;;;;;;;;;;;;;;;;5091858;28;19922;-75
2022/04/17 13:45:08;;;;;;;;;;;;;;;;;;5092963;28;20374;-75
2022/04/17 13:47:34;;;;;;;;;;;;;;;;;;5093103;28;19917;-75
2022/04/17 13:49:59;;;;;;;;;;;;;;;;;;5094655;28;19916;-75
2022/04/17 13:52:25;;;;;;;;;;;;;;;;;;5096630;28;19916;-75
2022/04/17 13:54:51;;;;;;;;;;;;;;;;;;5096330;28;19916;-75
2022/04/17 13:57:16;;;;;;;;;;;;;;;;;;5094623;28;19933;-75
2022/04/17 13:59:42;;;;;;;;;;;;;;;;;;5096229;28;19916;-75
2022/04/17 14:02:07;;;;;;;;;;;;;;;;;;5096216;28;19962;-75
2022/04/17 14:04:32;;;;;;;;;;;;;;;;;;5095627;28;19916;-75
2022/04/17 14:06:58;;;;;;;;;;;;;;;;;;5096479;28;19922;-75
2022/04/17 14:09:23;;;;;;;;;;;;;;;;;;5096784;28;19916;-76
2022/04/17 14:11:49;;;;;;;;;;;;;;;;;;5095833;28;19967;-75
2022/04/17 14:14:14;;;;;;;;;;;;;;;;;;5096018;28;19916;-75
2022/04/17 14:16:39;;;;;;;;;;;;;;;;;;5095425;28;19923;-75
2022/04/17 14:19:05;;;;;;;;;;;;;;;;;;5095394;28;19920;-75
2022/04/17 14:21:30;;;;;;;;;;;;;;;;;;5093118;28;19917;-75
2022/04/17 14:23:58;;;;;;;;;;;;;;;;;;5085558;28;19916;-75
2022/04/17 14:26:24;;;;;;;;;;;;;;;;;;5086226;28;19923;-76
2022/04/17 14:28:49;;;;;;;;;;;;;;;;;;5083723;28;20007;-75
2022/04/17 14:31:14;;;;;;;;;;;;;;;;;;5084353;28;20002;-75
2022/04/17 14:33:40;;;;;;;;;;;;;;;;;;5085661;28;21259;-75
2022/04/17 14:36:05;;;;;;;;;;;;;;;;;;5081966;28;19917;-75
2022/04/17 14:38:30;;;;;;;;;;;;;;;;;;5085880;28;19927;-74
2022/04/17 14:40:56;;;;;;;;;;;;;;;;;;5085887;28;19921;-77
2022/04/17 14:43:21;;;;;;;;;;;;;;;;;;5084365;28;19924;-73
2022/04/17 14:45:47;;;;;;;;;;;;;;;;;;5084134;28;19952;-73
2022/04/17 14:48:12;;;;;;;;;;;;;;;;;;5082297;28;20065;-74
2022/04/17 14:50:37;;;;;;;;;;;;;;;;;;5082733;28;19945;-74
2022/04/17 14:53:03;;;;;;;;;;;;;;;;;;5080997;28;19924;-72
2022/04/17 14:55:28;;;;;;;;;;;;;;;;;;5083726;28;20305;-73
2022/04/17 14:57:54;;;;;;;;;;;;;;;;;;5094715;28;19920;-73
2022/04/17 15:00:19;;;;;;;;;;;;;;;;;;5074941;28;19916;-73
2022/04/17 15:02:44;;;;;;;;;;;;;;;;;;5093575;28;19923;-73
2022/04/17 15:05:09;;;;;;;;;;;;;;;;;;5093407;28;19916;-73
2022/04/17 15:07:35;;;;;;;;;;;;;;;;;;5088844;28;19916;-73
2022/04/17 15:10:01;;;;;;;;;;;;;;;;;;5093958;28;19924;-73
2022/04/17 15:12:26;;;;;;;;;;;;;;;;;;5094355;28;19916;-73
2022/04/17 15:14:51;;;;;;;;;;;;;;;;;;5093486;28;19916;-72
2022/04/17 15:17:17;;;;;;;;;;;;;;;;;;5091781;28;20366;-73
2022/04/17 15:19:42;;;;;;;;;;;;;;;;;;5083999;28;19938;-73
2022/04/17 15:22:10;;;;;;;;;;;;;;;;;;5075533;28;19920;-74
2022/04/17 15:24:35;;;;;;;;;;;;;;;;;;5074068;28;20390;-74
2022/04/17 15:27:00;;;;;;;;;;;;;;;;;;5074640;28;19916;-74
2022/04/17 15:29:26;;;;;;;;;;;;;;;;;;5072929;28;19947;-74
2022/04/17 15:31:52;;;;;;;;;;;;;;;;;;5073722;28;19917;-74
2022/04/17 15:34:17;;;;;;;;;;;;;;;;;;5074729;28;19920;-73
2022/04/17 15:36:43;;;;;;;;;;;;;;;;;;5074181;28;19916;-74
2022/04/17 15:39:09;;;;;;;;;;;;;;;;;;5083309;28;19961;-73
2022/04/17 15:41:34;;;;;;;;;;;;;;;;;;5074659;28;20293;-73
2022/04/17 15:49:29;;;;;;;;;;;;;;;;;;5094863;28;19916;-73
2022/04/17 15:51:54;;;;;;;;;;;;;;;;;;5085813;28;19916;-73
2022/04/17 15:54:20;;;;;;;;;;;;;;;;;;5080370;28;20415;-74
2022/04/17 15:56:45;;;;;;;;;;;;;;;;;;5071919;28;19920;-73
2022/04/17 15:59:10;;;;;;;;;;;;;;;;;;5090939;28;19966;-73
2022/04/17 16:01:36;;;;;;;;;;;;;;;;;;5091994;28;19916;-73
2022/04/17 16:04:01;;;;;;;;;;;;;;;;;;5091421;28;20456;-73
2022/04/17 16:06:27;;;;;;;;;;;;;;;;;;5093452;28;19920;-73
2022/04/17 16:08:52;;;;;;;;;;;;;;;;;;5093121;28;20320;-74
2022/04/17 16:11:18;;;;;;;;;;;;;;;;;;5092752;28;19916;-74
2022/04/17 16:13:43;;;;;;;;;;;;;;;;;;5093088;28;19920;-74
2022/04/17 16:16:09;;;;;;;;;;;;;;;;;;5094256;28;20378;-74
2022/04/17 16:18:34;;;;;;;;;;;;;;;;;;5093223;28;19939;-74
2022/04/17 16:20:59;;;;;;;;;;;;;;;;;;5093917;28;19920;-73
2022/04/17 16:23:25;;;;;;;;;;;;;;;;;;5093103;28;19945;-73
2022/04/17 16:25:50;;;;;;;;;;;;;;;;;;5093007;28;19919;-74
2022/04/17 16:28:16;;;;;;;;;;;;;;;;;;5094381;28;20416;-74
2022/04/17 16:30:41;;;;;;;;;;;;;;;;;;5093391;28;20512;-74
2022/04/17 16:33:06;;;;;;;;;;;;;;;;;;5083311;28;19920;-74
2022/04/17 16:35:32;;;;;;;;;;;;;;;;;;5080515;28;19916;-74
2022/04/17 16:37:57;;;;;;;;;;;;;;;;;;5081165;28;20289;-74
2022/04/17 16:40:25;;;;;;;;;;;;;;;;;;5082509;28;19967;-74
2022/04/17 16:42:53;;;;;;;;;;;;;;;;;;5080430;28;19927;-74
2022/04/17 16:45:18;;;;;;;;;;;;;;;;;;5077882;28;20011;-74
2022/04/17 16:47:43;;;;;;;;;;;;;;;;;;5083175;28;19920;-74
2022/04/17 16:50:09;;;;;;;;;;;;;;;;;;5081946;28;20287;-74
2022/04/17 16:52:34;;;;;;;;;;;;;;;;;;5082584;28;19916;-74
2022/04/17 16:54:59;;;;;;;;;;;;;;;;;;5081400;28;20011;-74
2022/04/17 17:00:10;;;;;;;;;;;;;;;;;;5074871;28;20002;-74
2022/04/17 17:02:35;;;;;;;;;;;;;;;;;;5082756;28;19916;-74
2022/04/17 17:05:01;;;;;;;;;;;;;;;;;;5081617;28;19919;-74
2022/04/17 17:07:26;;;;;;;;;;;;;;;;;;5079625;28;19927;-74